sensor_id;sensor_type;location;lat;lon;timestamp;P1;durP1;ratioP1;P2;durP2;ratioP2
54368;SDS011;40266;52.434;17.056;2023-09-07T00:02:12;13.30;;;7.50;;
54368;SDS011;40266;52.434;17.056;2023-09-07T00:27:08;16.40;;;7.50;;
54368;SDS011;40266;52.434;17.056;2023-09-07T00:34:13;11.80;;;7.70;;
54368;SDS011;40266;52.434;17.056;2023-09-07T00:37:41;14.00;;;7.90;;
54368;SDS011;40266;52.434;17.056;2023-09-07T00:44:32;16.60;;;8.40;;
54368;SDS011;40266;52.434;17.056;2023-09-07T00:51:28;17.00;;;8.40;;
54368;SDS011;40266;52.434;17.056;2023-09-07T00:54:58;12.10;;;7.70;;
54368;SDS011;40266;52.434;17.056;2023-09-07T00:58:26;15.20;;;8.40;;
54368;SDS011;40266;52.434;17.056;2023-09-07T01:01:42;12.10;;;7.80;;
54368;SDS011;40266;52.434;17.056;2023-09-07T01:04:26;16.00;;;8.60;;
54368;SDS011;40266;52.434;17.056;2023-09-07T01:07:24;14.00;;;8.90;;
54368;SDS011;40266;52.434;17.056;2023-09-07T01:10:10;16.80;;;9.00;;
54368;SDS011;40266;52.434;17.056;2023-09-07T01:12:52;16.70;;;9.80;;
54368;SDS011;40266;52.434;17.056;2023-09-07T01:15:34;18.80;;;9.00;;
54368;SDS011;40266;52.434;17.056;2023-09-07T01:18:17;14.60;;;8.80;;
54368;SDS011;40266;52.434;17.056;2023-09-07T01:21:19;12.30;;;8.00;;
54368;SDS011;40266;52.434;17.056;2023-09-07T01:24:04;14.20;;;8.70;;
54368;SDS011;40266;52.434;17.056;2023-09-07T01:26:48;13.50;;;8.40;;
54368;SDS011;40266;52.434;17.056;2023-09-07T01:29:31;12.60;;;7.70;;
54368;SDS011;40266;52.434;17.056;2023-09-07T01:32:12;12.00;;;7.80;;
54368;SDS011;40266;52.434;17.056;2023-09-07T01:34:55;14.20;;;8.20;;
54368;SDS011;40266;52.434;17.056;2023-09-07T01:37:39;14.30;;;7.30;;
54368;SDS011;40266;52.434;17.056;2023-09-07T01:40:20;12.20;;;7.80;;
54368;SDS011;40266;52.434;17.056;2023-09-07T01:43:03;12.30;;;7.70;;
54368;SDS011;40266;52.434;17.056;2023-09-07T01:45:45;17.00;;;8.30;;
54368;SDS011;40266;52.434;17.056;2023-09-07T01:48:26;15.10;;;8.90;;
54368;SDS011;40266;52.434;17.056;2023-09-07T01:51:08;14.60;;;8.20;;
54368;SDS011;40266;52.434;17.056;2023-09-07T01:53:50;15.00;;;9.30;;
54368;SDS011;40266;52.434;17.056;2023-09-07T01:56:31;15.00;;;8.00;;
54368;SDS011;40266;52.434;17.056;2023-09-07T01:59:13;16.80;;;8.80;;
54368;SDS011;40266;52.434;17.056;2023-09-07T02:01:55;14.10;;;9.00;;
54368;SDS011;40266;52.434;17.056;2023-09-07T02:04:37;17.70;;;9.00;;
54368;SDS011;40266;52.434;17.056;2023-09-07T02:07:18;15.20;;;8.60;;
54368;SDS011;40266;52.434;17.056;2023-09-07T02:10:00;17.20;;;8.90;;
54368;SDS011;40266;52.434;17.056;2023-09-07T02:12:45;18.40;;;8.60;;
54368;SDS011;40266;52.434;17.056;2023-09-07T02:15:28;18.60;;;9.30;;
54368;SDS011;40266;52.434;17.056;2023-09-07T02:18:09;16.50;;;9.50;;
54368;SDS011;40266;52.434;17.056;2023-09-07T02:20:51;14.30;;;9.00;;
54368;SDS011;40266;52.434;17.056;2023-09-07T02:23:33;15.90;;;9.60;;
54368;SDS011;40266;52.434;17.056;2023-09-07T02:26:14;18.50;;;9.90;;
54368;SDS011;40266;52.434;17.056;2023-09-07T02:28:56;17.40;;;9.70;;
54368;SDS011;40266;52.434;17.056;2023-09-07T02:31:39;14.90;;;8.70;;
54368;SDS011;40266;52.434;17.056;2023-09-07T02:34:21;16.80;;;9.60;;
54368;SDS011;40266;52.434;17.056;2023-09-07T02:37:03;20.80;;;10.20;;
54368;SDS011;40266;52.434;17.056;2023-09-07T02:39:45;17.00;;;9.10;;
54368;SDS011;40266;52.434;17.056;2023-09-07T02:42:27;17.20;;;9.40;;
54368;SDS011;40266;52.434;17.056;2023-09-07T02:45:11;19.40;;;9.70;;
54368;SDS011;40266;52.434;17.056;2023-09-07T02:47:53;21.00;;;9.20;;
54368;SDS011;40266;52.434;17.056;2023-09-07T02:50:35;19.70;;;9.90;;
54368;SDS011;40266;52.434;17.056;2023-09-07T02:56:00;20.60;;;9.70;;
54368;SDS011;40266;52.434;17.056;2023-09-07T02:58:45;15.10;;;9.20;;
54368;SDS011;40266;52.434;17.056;2023-09-07T03:01:28;18.00;;;9.30;;
54368;SDS011;40266;52.434;17.056;2023-09-07T03:04:10;24.00;;;11.00;;
54368;SDS011;40266;52.434;17.056;2023-09-07T03:06:51;25.90;;;11.20;;
54368;SDS011;40266;52.434;17.056;2023-09-07T03:09:33;20.20;;;10.40;;
54368;SDS011;40266;52.434;17.056;2023-09-07T03:12:14;38.80;;;12.20;;
54368;SDS011;40266;52.434;17.056;2023-09-07T03:14:56;35.00;;;11.80;;
54368;SDS011;40266;52.434;17.056;2023-09-07T03:17:38;30.20;;;12.30;;
54368;SDS011;40266;52.434;17.056;2023-09-07T03:20:20;20.20;;;10.50;;
54368;SDS011;40266;52.434;17.056;2023-09-07T03:23:03;25.70;;;11.20;;
54368;SDS011;40266;52.434;17.056;2023-09-07T03:25:45;24.90;;;10.90;;
54368;SDS011;40266;52.434;17.056;2023-09-07T03:28:26;25.80;;;11.60;;
54368;SDS011;40266;52.434;17.056;2023-09-07T03:31:08;19.70;;;10.90;;
54368;SDS011;40266;52.434;17.056;2023-09-07T03:33:50;21.40;;;11.10;;
54368;SDS011;40266;52.434;17.056;2023-09-07T03:39:14;23.80;;;11.00;;
54368;SDS011;40266;52.434;17.056;2023-09-07T03:41:56;21.20;;;10.90;;
54368;SDS011;40266;52.434;17.056;2023-09-07T03:44:38;21.20;;;11.10;;
54368;SDS011;40266;52.434;17.056;2023-09-07T03:50:02;19.40;;;9.30;;
54368;SDS011;40266;52.434;17.056;2023-09-07T03:52:45;24.40;;;11.80;;
54368;SDS011;40266;52.434;17.056;2023-09-07T03:55:27;20.50;;;11.30;;
54368;SDS011;40266;52.434;17.056;2023-09-07T03:58:09;20.70;;;9.10;;
54368;SDS011;40266;52.434;17.056;2023-09-07T04:00:51;24.70;;;10.90;;
54368;SDS011;40266;52.434;17.056;2023-09-07T04:03:33;29.40;;;10.20;;
54368;SDS011;40266;52.434;17.056;2023-09-07T04:06:15;27.40;;;10.90;;
54368;SDS011;40266;52.434;17.056;2023-09-07T04:08:56;25.20;;;10.90;;
54368;SDS011;40266;52.434;17.056;2023-09-07T04:11:38;24.80;;;10.80;;
54368;SDS011;40266;52.434;17.056;2023-09-07T04:14:21;27.50;;;10.40;;
54368;SDS011;40266;52.434;17.056;2023-09-07T04:17:02;24.50;;;10.60;;
54368;SDS011;40266;52.434;17.056;2023-09-07T04:19:44;21.80;;;11.20;;
54368;SDS011;40266;52.434;17.056;2023-09-07T04:22:26;23.40;;;11.30;;
54368;SDS011;40266;52.434;17.056;2023-09-07T04:25:08;24.10;;;11.50;;
54368;SDS011;40266;52.434;17.056;2023-09-07T04:27:50;23.40;;;11.60;;
54368;SDS011;40266;52.434;17.056;2023-09-07T04:30:33;21.00;;;11.20;;
54368;SDS011;40266;52.434;17.056;2023-09-07T04:33:19;20.10;;;11.50;;
54368;SDS011;40266;52.434;17.056;2023-09-07T04:36:07;19.90;;;10.70;;
54368;SDS011;40266;52.434;17.056;2023-09-07T04:38:54;21.40;;;10.90;;
54368;SDS011;40266;52.434;17.056;2023-09-07T04:41:36;23.30;;;10.40;;
54368;SDS011;40266;52.434;17.056;2023-09-07T04:44:17;28.10;;;11.40;;
54368;SDS011;40266;52.434;17.056;2023-09-07T04:46:59;26.40;;;10.40;;
54368;SDS011;40266;52.434;17.056;2023-09-07T04:49:41;35.40;;;11.10;;
54368;SDS011;40266;52.434;17.056;2023-09-07T04:52:23;36.30;;;11.70;;
54368;SDS011;40266;52.434;17.056;2023-09-07T04:55:05;29.40;;;11.70;;
54368;SDS011;40266;52.434;17.056;2023-09-07T04:57:49;30.50;;;11.40;;
54368;SDS011;40266;52.434;17.056;2023-09-07T05:00:30;30.90;;;11.70;;
54368;SDS011;40266;52.434;17.056;2023-09-07T05:03:12;23.60;;;11.30;;
54368;SDS011;40266;52.434;17.056;2023-09-07T05:05:54;30.90;;;11.30;;
54368;SDS011;40266;52.434;17.056;2023-09-07T05:08:35;22.20;;;11.30;;
54368;SDS011;40266;52.434;17.056;2023-09-07T05:11:17;29.70;;;11.80;;
54368;SDS011;40266;52.434;17.056;2023-09-07T05:13:58;24.30;;;10.70;;
54368;SDS011;40266;52.434;17.056;2023-09-07T05:16:44;24.00;;;11.80;;
54368;SDS011;40266;52.434;17.056;2023-09-07T05:19:26;28.10;;;11.10;;
54368;SDS011;40266;52.434;17.056;2023-09-07T05:22:08;29.60;;;12.60;;
54368;SDS011;40266;52.434;17.056;2023-09-07T05:24:49;21.70;;;12.30;;
54368;SDS011;40266;52.434;17.056;2023-09-07T05:27:31;30.80;;;12.70;;
54368;SDS011;40266;52.434;17.056;2023-09-07T05:30:13;22.70;;;11.60;;
54368;SDS011;40266;52.434;17.056;2023-09-07T05:32:55;22.10;;;11.90;;
54368;SDS011;40266;52.434;17.056;2023-09-07T05:35:36;29.90;;;14.60;;
54368;SDS011;40266;52.434;17.056;2023-09-07T05:38:19;27.30;;;14.50;;
54368;SDS011;40266;52.434;17.056;2023-09-07T05:41:01;27.90;;;15.10;;
54368;SDS011;40266;52.434;17.056;2023-09-07T05:43:43;30.60;;;14.40;;
54368;SDS011;40266;52.434;17.056;2023-09-07T05:46:24;27.10;;;14.70;;
54368;SDS011;40266;52.434;17.056;2023-09-07T05:49:06;32.20;;;16.70;;
54368;SDS011;40266;52.434;17.056;2023-09-07T05:51:48;34.30;;;17.00;;
54368;SDS011;40266;52.434;17.056;2023-09-07T05:54:29;39.40;;;22.90;;
54368;SDS011;40266;52.434;17.056;2023-09-07T05:57:11;42.70;;;24.40;;
54368;SDS011;40266;52.434;17.056;2023-09-07T05:59:54;40.10;;;23.20;;
54368;SDS011;40266;52.434;17.056;2023-09-07T06:02:37;47.10;;;24.80;;
54368;SDS011;40266;52.434;17.056;2023-09-07T06:05:18;45.60;;;25.90;;
54368;SDS011;40266;52.434;17.056;2023-09-07T06:08:03;48.20;;;26.20;;
54368;SDS011;40266;52.434;17.056;2023-09-07T06:10:45;49.20;;;28.80;;
54368;SDS011;40266;52.434;17.056;2023-09-07T06:13:27;46.50;;;28.10;;
54368;SDS011;40266;52.434;17.056;2023-09-07T06:17:42;50.20;;;29.10;;
54368;SDS011;40266;52.434;17.056;2023-09-07T06:20:27;43.70;;;25.20;;
54368;SDS011;40266;52.434;17.056;2023-09-07T06:23:12;48.40;;;25.70;;
54368;SDS011;40266;52.434;17.056;2023-09-07T06:25:55;43.00;;;25.40;;
54368;SDS011;40266;52.434;17.056;2023-09-07T06:28:38;40.90;;;25.30;;
54368;SDS011;40266;52.434;17.056;2023-09-07T06:31:22;36.00;;;23.20;;
54368;SDS011;40266;52.434;17.056;2023-09-07T06:34:05;35.10;;;22.50;;
54368;SDS011;40266;52.434;17.056;2023-09-07T06:36:48;32.00;;;20.80;;
54368;SDS011;40266;52.434;17.056;2023-09-07T06:39:35;36.50;;;21.10;;
54368;SDS011;40266;52.434;17.056;2023-09-07T06:42:18;32.90;;;21.10;;
54368;SDS011;40266;52.434;17.056;2023-09-07T06:45:06;30.20;;;18.60;;
54368;SDS011;40266;52.434;17.056;2023-09-07T06:47:50;29.20;;;17.30;;
54368;SDS011;40266;52.434;17.056;2023-09-07T06:50:36;26.60;;;16.90;;
54368;SDS011;40266;52.434;17.056;2023-09-07T06:53:20;22.80;;;15.60;;
54368;SDS011;40266;52.434;17.056;2023-09-07T06:56:03;25.70;;;14.40;;
54368;SDS011;40266;52.434;17.056;2023-09-07T06:58:47;28.00;;;16.70;;
54368;SDS011;40266;52.434;17.056;2023-09-07T07:01:30;23.30;;;14.60;;
54368;SDS011;40266;52.434;17.056;2023-09-07T07:04:13;25.70;;;14.70;;
54368;SDS011;40266;52.434;17.056;2023-09-07T07:06:56;23.00;;;13.80;;
54368;SDS011;40266;52.434;17.056;2023-09-07T07:09:40;20.90;;;13.40;;
54368;SDS011;40266;52.434;17.056;2023-09-07T07:12:23;24.00;;;13.20;;
54368;SDS011;40266;52.434;17.056;2023-09-07T07:15:06;24.30;;;13.10;;
54368;SDS011;40266;52.434;17.056;2023-09-07T07:17:50;21.20;;;13.40;;
54368;SDS011;40266;52.434;17.056;2023-09-07T07:20:41;20.10;;;11.30;;
54368;SDS011;40266;52.434;17.056;2023-09-07T07:23:27;19.20;;;11.60;;
54368;SDS011;40266;52.434;17.056;2023-09-07T07:26:10;19.60;;;11.50;;
54368;SDS011;40266;52.434;17.056;2023-09-07T07:28:53;23.60;;;12.50;;
54368;SDS011;40266;52.434;17.056;2023-09-07T07:31:37;18.30;;;11.80;;
54368;SDS011;40266;52.434;17.056;2023-09-07T07:34:21;20.00;;;11.20;;
54368;SDS011;40266;52.434;17.056;2023-09-07T07:37:04;24.80;;;12.00;;
54368;SDS011;40266;52.434;17.056;2023-09-07T07:39:47;21.90;;;10.70;;
54368;SDS011;40266;52.434;17.056;2023-09-07T07:42:30;19.70;;;11.20;;
54368;SDS011;40266;52.434;17.056;2023-09-07T07:45:15;23.10;;;11.30;;
54368;SDS011;40266;52.434;17.056;2023-09-07T07:48:02;19.60;;;10.90;;
54368;SDS011;40266;52.434;17.056;2023-09-07T07:50:48;20.90;;;10.70;;
54368;SDS011;40266;52.434;17.056;2023-09-07T07:53:31;18.40;;;9.70;;
54368;SDS011;40266;52.434;17.056;2023-09-07T07:56:16;25.00;;;11.00;;
54368;SDS011;40266;52.434;17.056;2023-09-07T07:59:02;23.80;;;10.90;;
54368;SDS011;40266;52.434;17.056;2023-09-07T08:01:46;18.60;;;10.30;;
54368;SDS011;40266;52.434;17.056;2023-09-07T08:04:29;24.70;;;10.30;;
54368;SDS011;40266;52.434;17.056;2023-09-07T08:07:15;15.60;;;9.80;;
54368;SDS011;40266;52.434;17.056;2023-09-07T08:09:59;16.20;;;9.60;;
54368;SDS011;40266;52.434;17.056;2023-09-07T08:12:42;16.00;;;9.90;;
54368;SDS011;40266;52.434;17.056;2023-09-07T08:15:27;18.10;;;9.60;;
54368;SDS011;40266;52.434;17.056;2023-09-07T08:18:10;20.30;;;10.30;;
54368;SDS011;40266;52.434;17.056;2023-09-07T08:20:54;21.40;;;9.50;;
54368;SDS011;40266;52.434;17.056;2023-09-07T08:23:37;18.20;;;10.90;;
54368;SDS011;40266;52.434;17.056;2023-09-07T08:26:21;18.00;;;10.70;;
54368;SDS011;40266;52.434;17.056;2023-09-07T08:29:04;22.20;;;10.30;;
54368;SDS011;40266;52.434;17.056;2023-09-07T08:31:48;17.20;;;10.30;;
54368;SDS011;40266;52.434;17.056;2023-09-07T08:34:33;18.00;;;9.60;;
54368;SDS011;40266;52.434;17.056;2023-09-07T08:37:18;17.50;;;8.90;;
54368;SDS011;40266;52.434;17.056;2023-09-07T08:40:07;19.70;;;8.50;;
54368;SDS011;40266;52.434;17.056;2023-09-07T08:42:51;12.50;;;7.50;;
54368;SDS011;40266;52.434;17.056;2023-09-07T08:45:41;16.60;;;9.10;;
54368;SDS011;40266;52.434;17.056;2023-09-07T08:48:42;16.90;;;8.30;;
54368;SDS011;40266;52.434;17.056;2023-09-07T08:51:26;13.50;;;7.70;;
54368;SDS011;40266;52.434;17.056;2023-09-07T08:54:14;16.40;;;7.70;;
54368;SDS011;40266;52.434;17.056;2023-09-07T08:56:57;12.20;;;6.90;;
54368;SDS011;40266;52.434;17.056;2023-09-07T08:59:41;13.60;;;6.20;;
54368;SDS011;40266;52.434;17.056;2023-09-07T09:02:24;13.10;;;7.20;;
54368;SDS011;40266;52.434;17.056;2023-09-07T09:05:08;21.20;;;7.50;;
54368;SDS011;40266;52.434;17.056;2023-09-07T09:08:00;18.80;;;7.10;;
54368;SDS011;40266;52.434;17.056;2023-09-07T09:10:47;15.00;;;7.10;;
54368;SDS011;40266;52.434;17.056;2023-09-07T09:13:30;13.90;;;7.10;;
54368;SDS011;40266;52.434;17.056;2023-09-07T09:16:15;12.70;;;6.40;;
54368;SDS011;40266;52.434;17.056;2023-09-07T09:18:59;13.10;;;6.60;;
54368;SDS011;40266;52.434;17.056;2023-09-07T09:21:43;14.40;;;5.80;;
54368;SDS011;40266;52.434;17.056;2023-09-07T09:24:31;12.10;;;5.60;;
54368;SDS011;40266;52.434;17.056;2023-09-07T09:27:16;10.00;;;5.60;;
54368;SDS011;40266;52.434;17.056;2023-09-07T09:30:00;9.90;;;4.60;;
54368;SDS011;40266;52.434;17.056;2023-09-07T09:32:43;12.70;;;4.30;;
54368;SDS011;40266;52.434;17.056;2023-09-07T09:35:26;7.40;;;4.50;;
54368;SDS011;40266;52.434;17.056;2023-09-07T09:38:10;8.50;;;5.00;;
54368;SDS011;40266;52.434;17.056;2023-09-07T09:40:56;10.10;;;4.80;;
54368;SDS011;40266;52.434;17.056;2023-09-07T09:43:39;10.60;;;4.50;;
54368;SDS011;40266;52.434;17.056;2023-09-07T09:46:22;14.90;;;4.50;;
54368;SDS011;40266;52.434;17.056;2023-09-07T09:49:08;12.00;;;4.20;;
54368;SDS011;40266;52.434;17.056;2023-09-07T09:51:51;10.70;;;4.80;;
54368;SDS011;40266;52.434;17.056;2023-09-07T09:54:34;7.30;;;4.20;;
54368;SDS011;40266;52.434;17.056;2023-09-07T09:57:18;5.60;;;3.90;;
54368;SDS011;40266;52.434;17.056;2023-09-07T10:00:03;12.40;;;4.60;;
54368;SDS011;40266;52.434;17.056;2023-09-07T10:05:55;8.40;;;4.10;;
54368;SDS011;40266;52.434;17.056;2023-09-07T10:08:39;9.70;;;5.10;;
54368;SDS011;40266;52.434;17.056;2023-09-07T10:11:31;5.70;;;4.10;;
54368;SDS011;40266;52.434;17.056;2023-09-07T10:14:16;14.20;;;4.60;;
54368;SDS011;40266;52.434;17.056;2023-09-07T10:16:59;15.00;;;4.30;;
54368;SDS011;40266;52.434;17.056;2023-09-07T10:19:48;8.60;;;4.10;;
54368;SDS011;40266;52.434;17.056;2023-09-07T10:22:35;7.70;;;4.20;;
54368;SDS011;40266;52.434;17.056;2023-09-07T10:25:21;8.10;;;4.30;;
54368;SDS011;40266;52.434;17.056;2023-09-07T10:28:22;9.70;;;4.40;;
54368;SDS011;40266;52.434;17.056;2023-09-07T10:31:12;7.00;;;4.20;;
54368;SDS011;40266;52.434;17.056;2023-09-07T10:34:07;9.60;;;4.30;;
54368;SDS011;40266;52.434;17.056;2023-09-07T10:36:55;5.40;;;3.70;;
54368;SDS011;40266;52.434;17.056;2023-09-07T10:39:39;9.00;;;5.10;;
54368;SDS011;40266;52.434;17.056;2023-09-07T10:42:26;11.40;;;4.80;;
54368;SDS011;40266;52.434;17.056;2023-09-07T10:45:13;8.40;;;4.20;;
54368;SDS011;40266;52.434;17.056;2023-09-07T10:48:01;18.20;;;5.30;;
54368;SDS011;40266;52.434;17.056;2023-09-07T10:50:47;8.30;;;4.80;;
54368;SDS011;40266;52.434;17.056;2023-09-07T10:53:31;18.70;;;5.10;;
54368;SDS011;40266;52.434;17.056;2023-09-07T10:56:15;8.90;;;4.30;;
54368;SDS011;40266;52.434;17.056;2023-09-07T10:58:58;11.40;;;4.80;;
54368;SDS011;40266;52.434;17.056;2023-09-07T11:01:43;11.40;;;3.80;;
54368;SDS011;40266;52.434;17.056;2023-09-07T11:04:27;9.60;;;5.20;;
54368;SDS011;40266;52.434;17.056;2023-09-07T11:07:11;9.50;;;4.40;;
54368;SDS011;40266;52.434;17.056;2023-09-07T11:09:55;7.50;;;4.20;;
54368;SDS011;40266;52.434;17.056;2023-09-07T11:12:39;7.30;;;4.00;;
54368;SDS011;40266;52.434;17.056;2023-09-07T11:15:23;13.50;;;4.90;;
54368;SDS011;40266;52.434;17.056;2023-09-07T11:18:06;9.60;;;4.40;;
54368;SDS011;40266;52.434;17.056;2023-09-07T11:20:50;8.20;;;4.00;;
54368;SDS011;40266;52.434;17.056;2023-09-07T11:23:34;8.40;;;4.30;;
54368;SDS011;40266;52.434;17.056;2023-09-07T11:26:21;15.80;;;5.00;;
54368;SDS011;40266;52.434;17.056;2023-09-07T11:29:04;7.40;;;4.50;;
54368;SDS011;40266;52.434;17.056;2023-09-07T11:31:47;14.60;;;4.70;;
54368;SDS011;40266;52.434;17.056;2023-09-07T11:34:30;10.90;;;4.40;;
54368;SDS011;40266;52.434;17.056;2023-09-07T11:37:13;7.90;;;3.90;;
54368;SDS011;40266;52.434;17.056;2023-09-07T11:39:56;8.00;;;4.80;;
54368;SDS011;40266;52.434;17.056;2023-09-07T11:42:40;7.80;;;4.30;;
54368;SDS011;40266;52.434;17.056;2023-09-07T11:45:24;6.40;;;4.10;;
54368;SDS011;40266;52.434;17.056;2023-09-07T11:48:09;6.90;;;4.60;;
54368;SDS011;40266;52.434;17.056;2023-09-07T11:50:53;12.40;;;5.00;;
54368;SDS011;40266;52.434;17.056;2023-09-07T11:53:36;14.50;;;4.60;;
54368;SDS011;40266;52.434;17.056;2023-09-07T11:56:18;11.60;;;4.20;;
54368;SDS011;40266;52.434;17.056;2023-09-07T11:59:02;9.20;;;5.00;;
54368;SDS011;40266;52.434;17.056;2023-09-07T12:01:45;17.80;;;6.60;;
54368;SDS011;40266;52.434;17.056;2023-09-07T12:04:28;19.40;;;5.20;;
54368;SDS011;40266;52.434;17.056;2023-09-07T12:07:11;9.30;;;4.10;;
54368;SDS011;40266;52.434;17.056;2023-09-07T12:09:55;13.00;;;4.20;;
54368;SDS011;40266;52.434;17.056;2023-09-07T12:12:40;9.80;;;4.60;;
54368;SDS011;40266;52.434;17.056;2023-09-07T12:15:24;13.80;;;4.70;;
54368;SDS011;40266;52.434;17.056;2023-09-07T12:18:07;8.20;;;4.00;;
54368;SDS011;40266;52.434;17.056;2023-09-07T12:20:51;10.70;;;4.50;;
54368;SDS011;40266;52.434;17.056;2023-09-07T12:23:34;16.40;;;4.10;;
54368;SDS011;40266;52.434;17.056;2023-09-07T12:26:17;10.90;;;5.00;;
54368;SDS011;40266;52.434;17.056;2023-09-07T12:29:02;13.20;;;5.20;;
54368;SDS011;40266;52.434;17.056;2023-09-07T12:31:45;14.70;;;4.30;;
54368;SDS011;40266;52.434;17.056;2023-09-07T12:34:28;8.00;;;4.30;;
54368;SDS011;40266;52.434;17.056;2023-09-07T12:37:14;10.00;;;4.60;;
54368;SDS011;40266;52.434;17.056;2023-09-07T12:39:57;7.90;;;4.30;;
54368;SDS011;40266;52.434;17.056;2023-09-07T12:42:41;8.00;;;4.10;;
54368;SDS011;40266;52.434;17.056;2023-09-07T12:45:25;9.30;;;4.30;;
54368;SDS011;40266;52.434;17.056;2023-09-07T12:48:09;10.60;;;4.90;;
54368;SDS011;40266;52.434;17.056;2023-09-07T12:50:53;18.00;;;4.50;;
54368;SDS011;40266;52.434;17.056;2023-09-07T12:53:37;9.20;;;4.70;;
54368;SDS011;40266;52.434;17.056;2023-09-07T12:56:20;8.70;;;5.20;;
54368;SDS011;40266;52.434;17.056;2023-09-07T12:59:03;9.10;;;4.20;;
54368;SDS011;40266;52.434;17.056;2023-09-07T13:01:46;8.90;;;4.20;;
54368;SDS011;40266;52.434;17.056;2023-09-07T13:04:30;12.40;;;4.80;;
54368;SDS011;40266;52.434;17.056;2023-09-07T13:07:13;7.00;;;4.40;;
54368;SDS011;40266;52.434;17.056;2023-09-07T13:09:56;6.90;;;4.30;;
54368;SDS011;40266;52.434;17.056;2023-09-07T13:12:41;9.20;;;4.40;;
54368;SDS011;40266;52.434;17.056;2023-09-07T13:15:24;9.70;;;5.40;;
54368;SDS011;40266;52.434;17.056;2023-09-07T13:18:07;10.20;;;4.30;;
54368;SDS011;40266;52.434;17.056;2023-09-07T13:20:51;7.10;;;3.80;;
54368;SDS011;40266;52.434;17.056;2023-09-07T13:23:42;10.40;;;4.10;;
54368;SDS011;40266;52.434;17.056;2023-09-07T13:26:25;6.20;;;4.00;;
54368;SDS011;40266;52.434;17.056;2023-09-07T13:29:08;11.00;;;4.60;;
54368;SDS011;40266;52.434;17.056;2023-09-07T13:31:51;9.40;;;4.30;;
54368;SDS011;40266;52.434;17.056;2023-09-07T13:34:36;9.60;;;4.80;;
54368;SDS011;40266;52.434;17.056;2023-09-07T13:37:19;10.40;;;4.30;;
54368;SDS011;40266;52.434;17.056;2023-09-07T13:40:02;8.50;;;4.00;;
54368;SDS011;40266;52.434;17.056;2023-09-07T13:42:47;14.20;;;4.30;;
54368;SDS011;40266;52.434;17.056;2023-09-07T13:45:31;14.10;;;4.90;;
54368;SDS011;40266;52.434;17.056;2023-09-07T13:48:14;17.70;;;4.80;;
54368;SDS011;40266;52.434;17.056;2023-09-07T13:50:57;9.50;;;3.70;;
54368;SDS011;40266;52.434;17.056;2023-09-07T13:53:40;7.50;;;4.30;;
54368;SDS011;40266;52.434;17.056;2023-09-07T13:56:23;10.80;;;4.10;;
54368;SDS011;40266;52.434;17.056;2023-09-07T13:59:06;6.80;;;4.20;;
54368;SDS011;40266;52.434;17.056;2023-09-07T14:01:50;10.10;;;4.10;;
54368;SDS011;40266;52.434;17.056;2023-09-07T14:04:34;14.50;;;4.20;;
54368;SDS011;40266;52.434;17.056;2023-09-07T14:07:17;7.30;;;4.10;;
54368;SDS011;40266;52.434;17.056;2023-09-07T14:10:01;13.20;;;5.00;;
54368;SDS011;40266;52.434;17.056;2023-09-07T14:12:44;8.50;;;4.60;;
54368;SDS011;40266;52.434;17.056;2023-09-07T14:15:29;12.70;;;4.50;;
54368;SDS011;40266;52.434;17.056;2023-09-07T14:18:13;13.10;;;4.80;;
54368;SDS011;40266;52.434;17.056;2023-09-07T14:20:56;16.20;;;4.40;;
54368;SDS011;40266;52.434;17.056;2023-09-07T14:23:44;8.30;;;4.00;;
54368;SDS011;40266;52.434;17.056;2023-09-07T14:26:28;9.30;;;4.70;;
54368;SDS011;40266;52.434;17.056;2023-09-07T14:29:11;8.20;;;4.70;;
54368;SDS011;40266;52.434;17.056;2023-09-07T14:31:54;7.10;;;4.00;;
54368;SDS011;40266;52.434;17.056;2023-09-07T14:34:38;17.20;;;5.30;;
54368;SDS011;40266;52.434;17.056;2023-09-07T14:37:21;8.00;;;3.90;;
54368;SDS011;40266;52.434;17.056;2023-09-07T14:40:04;7.20;;;4.20;;
54368;SDS011;40266;52.434;17.056;2023-09-07T14:42:50;8.80;;;4.10;;
54368;SDS011;40266;52.434;17.056;2023-09-07T14:45:33;10.00;;;4.10;;
54368;SDS011;40266;52.434;17.056;2023-09-07T14:48:16;13.20;;;4.00;;
54368;SDS011;40266;52.434;17.056;2023-09-07T14:50:59;11.30;;;4.20;;
54368;SDS011;40266;52.434;17.056;2023-09-07T14:53:45;10.00;;;4.30;;
54368;SDS011;40266;52.434;17.056;2023-09-07T14:56:28;11.60;;;4.00;;
54368;SDS011;40266;52.434;17.056;2023-09-07T14:59:13;16.30;;;4.90;;
54368;SDS011;40266;52.434;17.056;2023-09-07T15:01:56;6.10;;;3.50;;
54368;SDS011;40266;52.434;17.056;2023-09-07T15:04:46;7.30;;;3.70;;
54368;SDS011;40266;52.434;17.056;2023-09-07T15:07:31;9.60;;;3.80;;
54368;SDS011;40266;52.434;17.056;2023-09-07T15:10:14;9.10;;;4.20;;
54368;SDS011;40266;52.434;17.056;2023-09-07T15:12:57;13.10;;;3.80;;
54368;SDS011;40266;52.434;17.056;2023-09-07T15:15:40;11.40;;;4.60;;
54368;SDS011;40266;52.434;17.056;2023-09-07T15:18:23;10.10;;;4.80;;
54368;SDS011;40266;52.434;17.056;2023-09-07T15:21:06;9.20;;;3.80;;
54368;SDS011;40266;52.434;17.056;2023-09-07T15:23:49;10.40;;;4.60;;
54368;SDS011;40266;52.434;17.056;2023-09-07T15:26:40;11.40;;;4.20;;
54368;SDS011;40266;52.434;17.056;2023-09-07T15:29:25;16.90;;;4.70;;
54368;SDS011;40266;52.434;17.056;2023-09-07T15:32:08;12.10;;;4.30;;
54368;SDS011;40266;52.434;17.056;2023-09-07T15:34:51;9.80;;;4.30;;
54368;SDS011;40266;52.434;17.056;2023-09-07T15:37:34;10.80;;;4.40;;
54368;SDS011;40266;52.434;17.056;2023-09-07T15:40:17;10.80;;;4.50;;
54368;SDS011;40266;52.434;17.056;2023-09-07T15:43:00;10.00;;;4.80;;
54368;SDS011;40266;52.434;17.056;2023-09-07T15:45:43;11.90;;;4.10;;
54368;SDS011;40266;52.434;17.056;2023-09-07T15:48:28;13.20;;;4.40;;
54368;SDS011;40266;52.434;17.056;2023-09-07T15:51:13;11.90;;;4.40;;
54368;SDS011;40266;52.434;17.056;2023-09-07T15:53:57;6.80;;;3.90;;
54368;SDS011;40266;52.434;17.056;2023-09-07T15:56:40;12.70;;;4.50;;
54368;SDS011;40266;52.434;17.056;2023-09-07T15:59:24;13.20;;;4.30;;
54368;SDS011;40266;52.434;17.056;2023-09-07T16:02:07;9.70;;;4.30;;
54368;SDS011;40266;52.434;17.056;2023-09-07T16:04:50;12.30;;;4.60;;
54368;SDS011;40266;52.434;17.056;2023-09-07T16:07:34;13.70;;;4.30;;
54368;SDS011;40266;52.434;17.056;2023-09-07T16:10:17;12.10;;;4.40;;
54368;SDS011;40266;52.434;17.056;2023-09-07T16:13:00;9.80;;;4.50;;
54368;SDS011;40266;52.434;17.056;2023-09-07T16:15:44;7.40;;;4.20;;
54368;SDS011;40266;52.434;17.056;2023-09-07T16:18:28;12.00;;;4.30;;
54368;SDS011;40266;52.434;17.056;2023-09-07T16:21:12;11.60;;;4.30;;
54368;SDS011;40266;52.434;17.056;2023-09-07T16:23:58;13.30;;;4.60;;
54368;SDS011;40266;52.434;17.056;2023-09-07T16:26:41;10.40;;;4.20;;
54368;SDS011;40266;52.434;17.056;2023-09-07T16:29:24;9.20;;;3.80;;
54368;SDS011;40266;52.434;17.056;2023-09-07T16:32:07;7.60;;;4.70;;
54368;SDS011;40266;52.434;17.056;2023-09-07T16:34:55;9.70;;;4.70;;
54368;SDS011;40266;52.434;17.056;2023-09-07T16:37:38;12.40;;;5.60;;
54368;SDS011;40266;52.434;17.056;2023-09-07T16:40:23;10.10;;;4.60;;
54368;SDS011;40266;52.434;17.056;2023-09-07T16:43:06;14.40;;;4.80;;
54368;SDS011;40266;52.434;17.056;2023-09-07T16:45:59;16.60;;;5.40;;
54368;SDS011;40266;52.434;17.056;2023-09-07T16:48:43;17.10;;;4.60;;